createdAt,value
2023-04-02T00:00:54.556Z,987.00
2023-04-02T00:01:54.568Z,987.00
2023-04-02T00:02:54.733Z,987.04
2023-04-02T00:03:54.612Z,987.03
2023-04-02T00:04:54.519Z,987.08
2023-04-02T00:05:54.514Z,987.10
2023-04-02T00:06:54.507Z,987.11
2023-04-02T00:07:54.519Z,987.17
2023-04-02T00:08:54.500Z,987.14
2023-04-02T00:09:54.504Z,987.14
2023-04-02T00:10:54.470Z,987.16
2023-04-02T00:11:54.456Z,987.21
2023-04-02T00:12:54.444Z,987.20
2023-04-02T00:13:54.428Z,987.23
2023-04-02T00:14:54.490Z,987.24
2023-04-02T00:15:54.405Z,987.27
2023-04-02T00:16:54.405Z,987.29
2023-04-02T00:17:54.396Z,987.33
2023-04-02T00:18:54.388Z,987.33
2023-04-02T00:19:54.381Z,987.33
2023-04-02T00:20:54.380Z,987.38
2023-04-02T00:21:54.374Z,987.42
2023-04-02T00:22:54.350Z,987.42
2023-04-02T00:23:54.334Z,987.46
2023-04-02T00:24:54.357Z,987.48
2023-04-02T00:25:54.313Z,987.51
2023-04-02T00:26:54.303Z,987.53
2023-04-02T00:27:54.298Z,987.55
2023-04-02T00:28:54.288Z,987.56
2023-04-02T00:29:54.326Z,987.59
2023-04-02T00:30:54.267Z,987.62
2023-04-02T00:31:54.273Z,987.64
2023-04-02T00:32:54.334Z,987.63
2023-04-02T00:33:54.235Z,987.65
2023-04-02T00:34:54.241Z,987.68
2023-04-02T00:35:54.299Z,987.70
2023-04-02T00:36:54.197Z,987.72
2023-04-02T00:37:54.195Z,987.75
2023-04-02T00:38:54.184Z,987.76
2023-04-02T00:39:54.208Z,987.78
2023-04-02T00:40:54.156Z,987.79
2023-04-02T00:41:54.140Z,987.82
2023-04-02T00:42:54.155Z,987.83
2023-04-02T00:43:54.148Z,987.87
2023-04-02T00:44:54.148Z,987.85
2023-04-02T00:45:54.136Z,987.85
2023-04-02T00:46:54.112Z,987.88
2023-04-02T00:47:54.111Z,987.92
2023-04-02T00:48:54.071Z,987.93
2023-04-02T00:49:54.077Z,987.92
2023-04-02T00:50:54.069Z,987.97
2023-04-02T00:51:54.052Z,987.98
2023-04-02T00:52:54.058Z,988.03
2023-04-02T00:53:54.033Z,988.01
2023-04-02T00:54:54.035Z,988.05
2023-04-02T00:55:54.021Z,988.05
2023-04-02T00:56:54.054Z,988.08
2023-04-02T00:57:53.990Z,988.10
2023-04-02T00:58:53.999Z,988.11
2023-04-02T00:59:54.020Z,988.10
2023-04-02T01:00:53.969Z,988.13
2023-04-02T01:01:53.945Z,988.12
2023-04-02T01:02:53.981Z,988.13
2023-04-02T01:03:53.983Z,988.16
2023-04-02T01:04:53.976Z,988.15
2023-04-02T01:05:53.896Z,988.16
2023-04-02T01:06:53.919Z,988.15
2023-04-02T01:07:53.873Z,988.17
2023-04-02T01:08:53.870Z,988.17
2023-04-02T01:09:53.887Z,988.18
2023-04-02T01:10:53.888Z,988.20
2023-04-02T01:11:53.851Z,988.19
2023-04-02T01:12:53.834Z,988.22
2023-04-02T01:13:53.810Z,988.22
2023-04-02T01:14:53.975Z,988.24
2023-04-02T01:15:54.069Z,988.26
2023-04-02T01:16:53.815Z,988.31
2023-04-02T01:17:53.859Z,988.33
2023-04-02T01:18:53.764Z,988.32
2023-04-02T01:19:53.778Z,988.35
2023-04-02T01:20:53.748Z,988.39
2023-04-02T01:21:53.727Z,988.42
2023-04-02T01:22:53.733Z,988.43
2023-04-02T01:23:53.740Z,988.45
2023-04-02T01:24:53.728Z,988.47
2023-04-02T01:25:53.695Z,988.49
2023-04-02T01:26:53.730Z,988.49
2023-04-02T01:27:53.663Z,988.53
2023-04-02T01:28:53.661Z,988.56
2023-04-02T01:29:53.672Z,988.56
2023-04-02T01:30:53.662Z,988.60
2023-04-02T01:31:53.693Z,988.61
2023-04-02T01:32:53.702Z,988.65
2023-04-02T01:33:53.619Z,988.65
2023-04-02T01:34:53.621Z,988.66
2023-04-02T01:35:53.621Z,988.69
2023-04-02T01:36:53.590Z,988.72
2023-04-02T01:37:53.564Z,988.73
2023-04-02T01:38:53.566Z,988.72
2023-04-02T01:39:53.575Z,988.77
2023-04-02T01:40:53.555Z,988.78
2023-04-02T01:41:53.536Z,988.83
2023-04-02T01:42:53.526Z,988.83
2023-04-02T01:43:53.548Z,988.86
2023-04-02T01:44:53.523Z,988.88
2023-04-02T01:45:53.523Z,988.89
2023-04-02T01:46:53.528Z,988.94
2023-04-02T01:47:53.536Z,988.99
2023-04-02T01:48:53.506Z,989.00
2023-04-02T01:49:53.484Z,989.04
2023-04-02T01:50:53.451Z,989.07
2023-04-02T01:51:53.428Z,989.09
2023-04-02T01:52:53.424Z,989.11
2023-04-02T01:53:53.425Z,989.12
2023-04-02T01:54:53.974Z,989.15
2023-04-02T01:55:53.385Z,989.17
2023-04-02T01:56:53.405Z,989.21
2023-04-02T01:57:53.368Z,989.22
2023-04-02T01:58:53.354Z,989.24
2023-04-02T01:59:53.374Z,989.25
2023-04-02T02:00:53.385Z,989.28
2023-04-02T02:01:53.336Z,989.28
2023-04-02T02:02:53.341Z,989.31
2023-04-02T02:03:53.321Z,989.33
2023-04-02T02:04:53.320Z,989.34
2023-04-02T02:05:53.305Z,989.36
2023-04-02T02:06:53.287Z,989.38
2023-04-02T02:07:53.302Z,989.40
2023-04-02T02:08:53.432Z,989.42
2023-04-02T02:09:53.245Z,989.43
2023-04-02T02:10:53.230Z,989.46
2023-04-02T02:11:53.222Z,989.47
2023-04-02T02:12:53.257Z,989.49
2023-04-02T02:13:53.202Z,989.53
2023-04-02T02:14:53.236Z,989.54
2023-04-02T02:15:53.175Z,989.56
2023-04-02T02:16:53.177Z,989.59
2023-04-02T02:17:53.176Z,989.60
2023-04-02T02:18:53.149Z,989.61
2023-04-02T02:19:53.161Z,989.64
2023-04-02T02:20:53.138Z,989.64
2023-04-02T02:21:53.132Z,989.67
2023-04-02T02:22:53.111Z,989.73
2023-04-02T02:23:53.105Z,989.72
2023-04-02T02:24:53.128Z,989.74
2023-04-02T02:25:53.086Z,989.76
2023-04-02T02:26:53.080Z,989.79
2023-04-02T02:27:53.060Z,989.79
2023-04-02T02:28:53.055Z,989.81
2023-04-02T02:29:53.073Z,989.82
2023-04-02T02:30:53.036Z,989.84
2023-04-02T02:31:53.109Z,989.87
2023-04-02T02:32:53.152Z,989.89
2023-04-02T02:33:53.059Z,989.88
2023-04-02T02:34:53.169Z,989.92
2023-04-02T02:35:53.053Z,989.94
2023-04-02T02:36:52.981Z,989.95
2023-04-02T02:37:52.956Z,989.95
2023-04-02T02:38:54.370Z,990.00
2023-04-02T02:39:52.939Z,990.03
2023-04-02T02:40:52.954Z,990.05
2023-04-02T02:41:52.917Z,990.06
2023-04-02T02:42:52.922Z,990.09
2023-04-02T02:43:52.921Z,990.12
2023-04-02T02:44:52.893Z,990.14
2023-04-02T02:45:52.959Z,990.18
2023-04-02T02:46:52.880Z,990.19
2023-04-02T02:47:52.904Z,990.21
2023-04-02T02:48:52.858Z,990.22
2023-04-02T02:49:52.849Z,990.24
2023-04-02T02:50:52.858Z,990.23
2023-04-02T02:51:52.837Z,990.26
2023-04-02T02:52:52.813Z,990.28
2023-04-02T02:53:52.791Z,990.30
2023-04-02T02:54:52.835Z,990.30
2023-04-02T02:55:52.790Z,990.31
2023-04-02T02:56:52.798Z,990.34
2023-04-02T02:57:52.753Z,990.34
2023-04-02T02:58:52.773Z,990.38
2023-04-02T02:59:52.742Z,990.39
2023-04-02T03:00:52.751Z,990.41
2023-04-02T03:01:52.711Z,990.43
2023-04-02T03:02:52.915Z,990.45
2023-04-02T03:03:52.800Z,990.48
2023-04-02T03:04:52.710Z,990.49
2023-04-02T03:05:52.699Z,990.52
2023-04-02T03:06:52.772Z,990.54
2023-04-02T03:07:52.652Z,990.57
2023-04-02T03:08:52.664Z,990.61
2023-04-02T03:09:52.657Z,990.63
2023-04-02T03:10:52.636Z,990.66
2023-04-02T03:11:52.613Z,990.68
2023-04-02T03:12:52.618Z,990.68
2023-04-02T03:13:52.609Z,990.69
2023-04-02T03:14:52.580Z,990.71
2023-04-02T03:15:52.614Z,990.74
2023-04-02T03:16:52.564Z,990.76
2023-04-02T03:17:52.572Z,990.78
2023-04-02T03:18:52.567Z,990.81
2023-04-02T03:19:52.571Z,990.83
2023-04-02T03:20:52.535Z,990.83
2023-04-02T03:21:52.509Z,990.86
2023-04-02T03:22:52.504Z,990.88
2023-04-02T03:23:52.491Z,990.92
2023-04-02T03:24:52.493Z,990.93
2023-04-02T03:25:52.508Z,990.96
2023-04-02T03:26:52.472Z,990.99
2023-04-02T03:27:52.458Z,990.99
2023-04-02T03:28:52.449Z,991.04
2023-04-02T03:29:52.430Z,991.05
2023-04-02T03:30:52.491Z,991.06
2023-04-02T03:31:52.424Z,991.06
2023-04-02T03:32:52.474Z,991.12
2023-04-02T03:33:52.408Z,991.12
2023-04-02T03:34:52.384Z,991.15
2023-04-02T03:35:52.454Z,991.16
2023-04-02T03:36:52.372Z,991.18
2023-04-02T03:37:52.367Z,991.22
2023-04-02T03:38:52.338Z,991.22
2023-04-02T03:39:52.338Z,991.24
2023-04-02T03:40:52.337Z,991.25
2023-04-02T03:41:52.319Z,991.28
2023-04-02T03:42:52.293Z,991.30
2023-04-02T03:43:52.300Z,991.35
2023-04-02T03:44:52.288Z,991.34
2023-04-02T03:45:52.285Z,991.35
2023-04-02T03:46:52.306Z,991.35
2023-04-02T03:47:52.303Z,991.39
2023-04-02T03:48:52.252Z,991.42
2023-04-02T03:49:52.231Z,991.41
2023-04-02T03:50:52.235Z,991.42
2023-04-02T03:51:52.220Z,991.47
2023-04-02T03:52:52.200Z,991.49
2023-04-02T03:53:52.193Z,991.50
2023-04-02T03:54:53.167Z,991.54
2023-04-02T03:55:52.193Z,991.55
2023-04-02T03:56:52.228Z,991.57
2023-04-02T03:57:52.186Z,991.59
2023-04-02T03:58:52.140Z,991.60
2023-04-02T03:59:52.136Z,991.62
2023-04-02T04:00:52.175Z,991.63
2023-04-02T04:01:52.166Z,991.65
2023-04-02T04:02:52.169Z,991.66
2023-04-02T04:03:52.176Z,991.68
2023-04-02T04:04:52.098Z,991.67
2023-04-02T04:05:52.078Z,991.72
2023-04-02T04:06:52.070Z,991.74
2023-04-02T04:07:52.040Z,991.77
2023-04-02T04:08:52.051Z,991.79
2023-04-02T04:09:52.044Z,991.81
2023-04-02T04:10:52.072Z,991.84
2023-04-02T04:11:52.012Z,991.86
2023-04-02T04:12:51.994Z,991.89
2023-04-02T04:13:51.985Z,991.92
2023-04-02T04:14:51.968Z,991.90
2023-04-02T04:15:51.980Z,991.97
2023-04-02T04:16:52.083Z,991.98
2023-04-02T04:17:52.907Z,991.99
2023-04-02T04:18:51.949Z,992.03
2023-04-02T04:19:51.996Z,992.05
2023-04-02T04:20:51.934Z,992.09
2023-04-02T04:21:51.918Z,992.12
2023-04-02T04:22:52.091Z,992.13
2023-04-02T04:23:51.892Z,992.14
2023-04-02T04:24:51.875Z,992.16
2023-04-02T04:25:51.832Z,992.18
2023-04-02T04:26:51.870Z,992.21
2023-04-02T04:27:51.845Z,992.22
2023-04-02T04:28:51.812Z,992.26
2023-04-02T04:29:51.770Z,992.28
2023-04-02T04:30:51.779Z,992.30
2023-04-02T04:31:51.815Z,992.31
2023-04-02T04:32:51.878Z,992.31
2023-04-02T04:33:51.760Z,992.33
2023-04-02T04:34:51.711Z,992.36
2023-04-02T04:35:51.767Z,992.39
2023-04-02T04:36:51.750Z,992.40
2023-04-02T04:37:51.753Z,992.42
2023-04-02T04:38:51.699Z,992.45
2023-04-02T04:39:51.675Z,992.47
2023-04-02T04:40:51.677Z,992.49
2023-04-02T04:41:51.647Z,992.50
2023-04-02T04:42:51.649Z,992.50
2023-04-02T04:43:51.640Z,992.52
2023-04-02T04:44:51.630Z,992.54
2023-04-02T04:45:51.723Z,992.55
2023-04-02T04:46:51.590Z,992.59
2023-04-02T04:47:51.648Z,992.62
2023-04-02T04:48:51.573Z,992.64
2023-04-02T04:49:51.573Z,992.69
2023-04-02T04:50:51.606Z,992.68
2023-04-02T04:51:51.552Z,992.74
2023-04-02T04:52:51.549Z,992.74
2023-04-02T04:53:51.526Z,992.77
2023-04-02T04:54:51.516Z,992.77
2023-04-02T04:55:51.573Z,992.83
2023-04-02T04:56:51.531Z,992.86
2023-04-02T04:57:51.484Z,992.89
2023-04-02T04:58:51.498Z,992.93
2023-04-02T04:59:51.463Z,992.92
2023-04-02T05:00:51.461Z,992.95
2023-04-02T05:01:51.534Z,992.97
2023-04-02T05:02:51.433Z,992.99
2023-04-02T05:03:51.428Z,993.02
2023-04-02T05:04:51.474Z,993.03
2023-04-02T05:05:51.474Z,993.04
2023-04-02T05:06:51.394Z,993.02
2023-04-02T05:07:51.392Z,993.07
2023-04-02T05:08:51.375Z,993.09
2023-04-02T05:09:51.372Z,993.12
2023-04-02T05:10:51.380Z,993.12
2023-04-02T05:11:51.347Z,993.14
2023-04-02T05:12:51.344Z,993.16
2023-04-02T05:13:51.344Z,993.18
2023-04-02T05:14:51.324Z,993.20
2023-04-02T05:15:51.414Z,993.21
2023-04-02T05:16:51.294Z,993.23
2023-04-02T05:17:51.374Z,993.25
2023-04-02T05:18:51.264Z,993.26
2023-04-02T05:19:51.287Z,993.27
2023-04-02T05:20:51.277Z,993.33
2023-04-02T05:21:51.256Z,993.35
2023-04-02T05:22:51.225Z,993.38
2023-04-02T05:23:51.227Z,993.42
2023-04-02T05:24:51.198Z,993.44
2023-04-02T05:25:51.216Z,993.46
2023-04-02T05:26:51.212Z,993.51
2023-04-02T05:27:51.183Z,993.56
2023-04-02T05:28:51.196Z,993.56
2023-04-02T05:29:51.172Z,993.61
2023-04-02T05:30:51.148Z,993.60
2023-04-02T05:31:51.189Z,993.65
2023-04-02T05:32:51.200Z,993.68
2023-04-02T05:33:51.125Z,993.69
2023-04-02T05:34:51.105Z,993.74
2023-04-02T05:35:51.131Z,993.77
2023-04-02T05:36:51.124Z,993.78
2023-04-02T05:37:51.098Z,993.81
2023-04-02T05:38:51.143Z,993.83
2023-04-02T05:39:51.059Z,993.87
2023-04-02T05:40:51.069Z,993.89
2023-04-02T05:41:51.049Z,993.91
2023-04-02T05:42:51.028Z,993.93
2023-04-02T05:43:51.045Z,993.94
2023-04-02T05:44:51.001Z,993.94
2023-04-02T05:45:51.048Z,993.98
2023-04-02T05:46:51.051Z,994.01
2023-04-02T05:47:51.020Z,994.01
2023-04-02T05:48:50.975Z,994.03
2023-04-02T05:49:50.974Z,994.06
2023-04-02T05:50:50.973Z,994.08
2023-04-02T05:51:50.953Z,994.09
2023-04-02T05:52:50.936Z,994.11
2023-04-02T05:53:50.928Z,994.11
2023-04-02T05:54:50.907Z,994.14
2023-04-02T05:55:50.936Z,994.13
2023-04-02T05:56:50.921Z,994.16
2023-04-02T05:58:13.600Z,994.18
2023-04-02T05:58:50.905Z,994.22
2023-04-02T05:59:50.882Z,994.22
2023-04-02T06:00:50.846Z,994.26
2023-04-02T06:01:51.023Z,994.24
2023-04-02T06:02:50.964Z,994.29
2023-04-02T06:03:50.876Z,994.31
2023-04-02T06:04:50.808Z,994.33
2023-04-02T06:05:50.807Z,994.36
2023-04-02T06:06:50.842Z,994.37
2023-04-02T06:07:50.799Z,994.39
2023-04-02T06:08:50.771Z,994.42
2023-04-02T06:09:50.778Z,994.43
2023-04-02T06:10:50.918Z,994.45
2023-04-02T06:11:50.766Z,994.48
2023-04-02T06:12:50.725Z,994.49
2023-04-02T06:13:50.734Z,994.51
2023-04-02T06:14:50.734Z,994.54
2023-04-02T06:15:50.721Z,994.56
2023-04-02T06:16:50.756Z,994.59
2023-04-02T06:17:50.712Z,994.63
2023-04-02T06:18:50.671Z,994.65
2023-04-02T06:19:50.660Z,994.69
2023-04-02T06:20:50.649Z,994.72
2023-04-02T06:21:50.665Z,994.74
2023-04-02T06:22:50.616Z,994.76
2023-04-02T06:23:50.630Z,994.78
2023-04-02T06:24:50.606Z,994.84
2023-04-02T06:25:50.610Z,994.84
2023-04-02T06:26:50.618Z,994.87
2023-04-02T06:27:50.580Z,994.89
2023-04-02T06:28:50.569Z,994.93
2023-04-02T06:29:50.569Z,994.95
2023-04-02T06:30:50.580Z,994.96
2023-04-02T06:31:50.595Z,994.97
2023-04-02T06:32:50.613Z,994.99
2023-04-02T06:33:50.524Z,995.02
2023-04-02T06:34:50.525Z,995.01
2023-04-02T06:35:50.553Z,995.04
2023-04-02T06:36:50.525Z,995.06
2023-04-02T06:37:50.490Z,995.09
2023-04-02T06:38:50.464Z,995.11
2023-04-02T06:39:50.466Z,995.12
2023-04-02T06:40:50.444Z,995.14
2023-04-02T06:41:50.481Z,995.16
2023-04-02T06:42:50.429Z,995.18
2023-04-02T06:43:50.431Z,995.21
2023-04-02T06:44:50.407Z,995.23
2023-04-02T06:45:50.452Z,995.24
2023-04-02T06:46:52.407Z,995.26
2023-04-02T06:47:50.440Z,995.30
2023-04-02T06:48:50.381Z,995.31
2023-04-02T06:49:50.375Z,995.34
2023-04-02T06:50:50.357Z,995.37
2023-04-02T06:51:50.359Z,995.39
2023-04-02T06:52:50.344Z,995.41
2023-04-02T06:53:50.342Z,995.45
2023-04-02T06:54:50.369Z,995.46
2023-04-02T06:55:50.313Z,995.48
2023-04-02T06:56:50.310Z,995.52
2023-04-02T06:57:50.294Z,995.56
2023-04-02T06:58:50.266Z,995.59
2023-04-02T06:59:50.269Z,995.63
2023-04-02T07:00:50.250Z,995.65
2023-04-02T07:01:50.271Z,995.67
2023-04-02T07:02:50.283Z,995.67
2023-04-02T07:03:50.224Z,995.72
2023-04-02T07:04:50.209Z,995.73
2023-04-02T07:05:50.201Z,995.77
2023-04-02T07:06:50.190Z,995.79
2023-04-02T07:07:50.168Z,995.81
2023-04-02T07:08:50.191Z,995.83
2023-04-02T07:09:50.162Z,995.86
2023-04-02T07:10:50.140Z,995.89
2023-04-02T07:11:50.149Z,995.92
2023-04-02T07:12:50.111Z,995.94
2023-04-02T07:13:50.108Z,995.95
2023-04-02T07:14:50.092Z,995.97
2023-04-02T07:15:50.155Z,995.99
2023-04-02T07:16:50.089Z,996.03
2023-04-02T07:17:50.105Z,996.06
2023-04-02T07:18:50.056Z,996.09
2023-04-02T07:19:50.061Z,996.10
2023-04-02T07:20:51.519Z,996.14
2023-04-02T07:21:50.055Z,996.17
2023-04-02T07:22:50.009Z,996.17
2023-04-02T07:23:50.006Z,996.22
2023-04-02T07:24:49.989Z,996.24
2023-04-02T07:25:49.989Z,996.26
2023-04-02T07:26:50.005Z,996.29
2023-04-02T07:27:49.963Z,996.31
2023-04-02T07:28:49.958Z,996.33
2023-04-02T07:29:49.954Z,996.33
2023-04-02T07:30:49.928Z,996.35
2023-04-02T07:31:50.057Z,996.37
2023-04-02T07:32:49.957Z,996.38
2023-04-02T07:33:49.928Z,996.40
2023-04-02T07:34:49.885Z,996.42
2023-04-02T07:35:49.905Z,996.44
2023-04-02T07:36:49.895Z,996.45
2023-04-02T07:37:49.879Z,996.45
2023-04-02T07:38:49.850Z,996.48
2023-04-02T07:39:49.840Z,996.46
2023-04-02T07:40:49.826Z,996.51
2023-04-02T07:41:49.844Z,996.54
2023-04-02T07:42:49.810Z,996.56
2023-04-02T07:43:49.803Z,996.58
2023-04-02T07:44:49.794Z,996.60
2023-04-02T07:45:49.783Z,996.63
2023-04-02T07:46:49.852Z,996.65
2023-04-02T07:47:49.815Z,996.65
2023-04-02T07:48:49.892Z,996.68
2023-04-02T07:49:49.745Z,996.69
2023-04-02T07:50:49.736Z,996.72
2023-04-02T07:51:49.744Z,996.74
2023-04-02T07:52:49.707Z,996.76
2023-04-02T07:53:49.711Z,996.79
2023-04-02T07:54:49.686Z,996.81
2023-04-02T07:55:49.685Z,996.82
2023-04-02T07:56:49.699Z,996.82
2023-04-02T07:57:49.660Z,996.84
2023-04-02T07:58:49.662Z,996.85
2023-04-02T07:59:49.645Z,996.86
2023-04-02T08:00:49.624Z,996.88
2023-04-02T08:01:49.687Z,996.89
2023-04-02T08:02:49.626Z,996.91
2023-04-02T08:03:50.454Z,996.94
2023-04-02T08:04:49.585Z,996.96
2023-04-02T08:05:49.580Z,996.99
2023-04-02T08:06:49.606Z,997.00
2023-04-02T08:07:49.568Z,997.03
2023-04-02T08:08:49.570Z,997.03
2023-04-02T08:09:49.549Z,997.06
2023-04-02T08:10:49.546Z,997.08
2023-04-02T08:11:49.542Z,997.10
2023-04-02T08:12:49.550Z,997.12
2023-04-02T08:13:49.515Z,997.13
2023-04-02T08:14:49.510Z,997.16
2023-04-02T08:15:49.489Z,997.17
2023-04-02T08:16:49.607Z,997.21
2023-04-02T08:17:49.487Z,997.24
2023-04-02T08:18:49.450Z,997.26
2023-04-02T08:19:55.118Z,997.29
2023-04-02T08:20:49.438Z,997.30
2023-04-02T08:21:49.446Z,997.33
2023-04-02T08:22:49.418Z,997.34
2023-04-02T08:23:49.405Z,997.36
2023-04-02T08:24:49.392Z,997.38
2023-04-02T08:25:49.382Z,997.39
2023-04-02T08:26:49.397Z,997.41
2023-04-02T08:27:49.379Z,997.43
2023-04-02T08:28:49.348Z,997.43
2023-04-02T08:29:49.341Z,997.44
2023-04-02T08:30:49.362Z,997.46
2023-04-02T08:31:49.365Z,997.47
2023-04-02T08:32:49.347Z,997.49
2023-04-02T08:33:49.311Z,997.48
2023-04-02T08:34:49.287Z,997.48
2023-04-02T08:35:49.356Z,997.50
2023-04-02T08:36:49.298Z,997.50
2023-04-02T08:37:49.271Z,997.52
2023-04-02T08:38:49.249Z,997.52
2023-04-02T08:39:49.247Z,997.55
2023-04-02T08:40:49.231Z,997.56
2023-04-02T08:41:49.292Z,997.57
2023-04-02T08:42:49.235Z,997.58
2023-04-02T08:43:49.197Z,997.60
2023-04-02T08:44:49.186Z,997.63
2023-04-02T08:45:49.171Z,997.65
2023-04-02T08:46:49.569Z,997.66
2023-04-02T08:47:49.223Z,997.69
2023-04-02T08:48:49.144Z,997.70
2023-04-02T08:49:49.134Z,997.73
2023-04-02T08:50:49.138Z,997.75
2023-04-02T08:51:49.138Z,997.76
2023-04-02T08:52:49.111Z,997.79
2023-04-02T08:53:49.090Z,997.80
2023-04-02T08:54:49.107Z,997.83
2023-04-02T08:55:49.098Z,997.84
2023-04-02T08:56:49.107Z,997.85
2023-04-02T08:57:49.049Z,997.86
2023-04-02T08:58:49.078Z,997.88
2023-04-02T08:59:49.032Z,997.90
2023-04-02T09:00:49.036Z,997.92
2023-04-02T09:01:49.075Z,997.95
2023-04-02T09:02:49.084Z,997.95
2023-04-02T09:03:48.998Z,997.97
2023-04-02T09:04:49.098Z,998.00
2023-04-02T09:05:48.971Z,998.01
2023-04-02T09:06:48.972Z,998.01
2023-04-02T09:07:48.980Z,998.04
2023-04-02T09:08:48.956Z,998.07
2023-04-02T09:09:48.936Z,998.09
2023-04-02T09:10:48.949Z,998.11
2023-04-02T09:11:48.909Z,998.12
2023-04-02T09:12:48.901Z,998.14
2023-04-02T09:13:48.890Z,998.15
2023-04-02T09:14:48.884Z,998.18
2023-04-02T09:15:48.905Z,998.21
2023-04-02T09:16:48.859Z,998.24
2023-04-02T09:17:53.945Z,998.26
2023-04-02T09:18:48.857Z,998.28
2023-04-02T09:19:48.827Z,998.31
2023-04-02T09:20:48.824Z,998.33
2023-04-02T09:21:48.823Z,998.34
2023-04-02T09:22:48.807Z,998.38
2023-04-02T09:23:48.800Z,998.39
2023-04-02T09:24:48.788Z,998.41
2023-04-02T09:26:03.039Z,998.40
2023-04-02T09:26:48.796Z,998.43
2023-04-02T09:27:48.770Z,998.46
2023-04-02T09:28:48.746Z,998.51
2023-04-02T09:29:48.723Z,998.53
2023-04-02T09:30:48.720Z,998.54
2023-04-02T09:31:48.736Z,998.55
2023-04-02T09:32:48.746Z,998.57
2023-04-02T09:33:48.687Z,998.58
2023-04-02T09:34:48.688Z,998.60
2023-04-02T09:35:48.677Z,998.64
2023-04-02T09:36:48.668Z,998.66
2023-04-02T09:37:48.677Z,998.66
2023-04-02T09:38:48.644Z,998.67
2023-04-02T09:39:48.626Z,998.70
2023-04-02T09:40:48.624Z,998.72
2023-04-02T09:41:59.004Z,998.73
2023-04-02T09:42:48.636Z,998.77
2023-04-02T09:43:48.597Z,998.77
2023-04-02T09:44:48.585Z,998.78
2023-04-02T09:45:48.563Z,998.78
2023-04-02T09:46:48.589Z,998.80
2023-04-02T09:47:48.625Z,998.82
2023-04-02T09:48:48.541Z,998.83
2023-04-02T09:49:48.524Z,998.85
2023-04-02T09:50:48.521Z,998.87
2023-04-02T09:51:48.501Z,998.87
2023-04-02T09:52:48.521Z,998.88
2023-04-02T09:53:48.488Z,998.93
2023-04-02T09:54:48.478Z,998.96
2023-04-02T09:55:48.461Z,998.96
2023-04-02T09:56:48.460Z,998.99
2023-04-02T09:57:48.477Z,999.01
2023-04-02T09:58:48.443Z,999.03
2023-04-02T09:59:48.423Z,999.05
2023-04-02T10:00:48.434Z,999.04
2023-04-02T10:01:48.413Z,999.04
2023-04-02T10:02:48.571Z,999.08
2023-04-02T10:03:48.405Z,999.12
2023-04-02T10:04:48.732Z,999.10
2023-04-02T10:05:48.365Z,999.15
2023-04-02T10:06:48.357Z,999.13
2023-04-02T10:07:48.367Z,999.12
2023-04-02T10:08:48.342Z,999.15
2023-04-02T10:09:48.317Z,999.15
2023-04-02T10:10:48.317Z,999.21
2023-04-02T10:11:48.302Z,999.22
2023-04-02T10:12:48.332Z,999.24
2023-04-02T10:13:48.293Z,999.26
2023-04-02T10:14:48.274Z,999.29
2023-04-02T10:15:48.260Z,999.33
2023-04-02T10:16:48.296Z,999.31
2023-04-02T10:17:48.267Z,999.36
2023-04-02T10:18:48.238Z,999.36
2023-04-02T10:19:48.218Z,999.39
2023-04-02T10:20:51.393Z,999.40
2023-04-02T10:21:48.196Z,999.41
2023-04-02T10:22:48.209Z,999.39
2023-04-02T10:23:48.185Z,999.42
2023-04-02T10:24:48.179Z,999.44
2023-04-02T10:25:48.162Z,999.44
2023-04-02T10:26:48.154Z,999.45
2023-04-02T10:27:48.143Z,999.48
2023-04-02T10:28:48.139Z,999.48
2023-04-02T10:29:48.134Z,999.51
2023-04-02T10:30:48.187Z,999.51
2023-04-02T10:31:48.103Z,999.52
2023-04-02T10:32:48.143Z,999.58
2023-04-02T10:33:48.079Z,999.61
2023-04-02T10:34:48.069Z,999.64
2023-04-02T10:35:48.068Z,999.64
2023-04-02T10:36:48.054Z,999.63
2023-04-02T10:37:48.261Z,999.64
2023-04-02T10:38:48.031Z,999.67
2023-04-02T10:39:48.019Z,999.68
2023-04-02T10:40:48.012Z,999.69
2023-04-02T10:41:48.003Z,999.69
2023-04-02T10:42:48.455Z,999.70
2023-04-02T10:43:47.979Z,999.73
2023-04-02T10:44:47.970Z,999.75
2023-04-02T10:45:47.982Z,999.73
2023-04-02T10:46:47.950Z,999.76
2023-04-02T10:47:47.980Z,999.76
2023-04-02T10:48:47.954Z,999.78
2023-04-02T10:49:47.954Z,999.78
2023-04-02T10:50:47.914Z,999.78
2023-04-02T10:51:47.896Z,999.79
2023-04-02T10:52:47.913Z,999.78
2023-04-02T10:53:47.874Z,999.84
2023-04-02T10:54:47.899Z,999.80
2023-04-02T10:55:47.861Z,999.82
2023-04-02T10:56:51.085Z,999.76
2023-04-02T10:57:47.892Z,999.85
2023-04-02T10:58:47.835Z,999.88
2023-04-02T10:59:47.824Z,999.88
2023-04-02T11:00:47.822Z,999.91
2023-04-02T11:01:47.852Z,999.90
2023-04-02T11:02:47.928Z,999.91
2023-04-02T11:03:48.670Z,999.90
2023-04-02T11:04:47.764Z,999.95
2023-04-02T11:05:48.451Z,999.94
2023-04-02T11:06:47.749Z,999.96
2023-04-02T11:07:47.779Z,999.95
2023-04-02T11:08:47.745Z,999.97
2023-04-02T11:09:47.713Z,999.97
2023-04-02T11:10:47.716Z,999.97
2023-04-02T11:11:47.693Z,999.99
2023-04-02T11:12:47.736Z,999.97
2023-04-02T11:13:47.671Z,999.98
2023-04-02T11:14:47.669Z,1000.00
2023-04-02T11:15:47.745Z,999.98
2023-04-02T11:16:47.700Z,1000.01
2023-04-02T11:17:47.765Z,1000.03
2023-04-02T11:18:47.627Z,1000.03
2023-04-02T11:19:47.624Z,1000.05
2023-04-02T11:20:47.622Z,1000.09
2023-04-02T11:21:57.975Z,1000.12
2023-04-02T11:22:47.629Z,1000.12
2023-04-02T11:23:47.567Z,1000.15
2023-04-02T11:24:47.566Z,1000.18
2023-04-02T11:25:47.553Z,1000.20
2023-04-02T11:26:47.555Z,1000.22
2023-04-02T11:27:47.534Z,1000.21
2023-04-02T11:28:47.540Z,1000.25
2023-04-02T11:29:47.507Z,1000.27
2023-04-02T11:30:47.510Z,1000.30
2023-04-02T11:31:47.507Z,1000.31
2023-04-02T11:32:47.518Z,1000.33
2023-04-02T11:33:49.976Z,1000.36
2023-04-02T11:34:56.420Z,1000.37
2023-04-02T11:35:47.484Z,1000.38
2023-04-02T11:36:47.455Z,1000.41
2023-04-02T11:37:47.443Z,1000.41
2023-04-02T11:38:47.469Z,1000.41
2023-04-02T11:39:47.409Z,1000.45
2023-04-02T11:40:47.405Z,1000.45
2023-04-02T11:41:47.399Z,1000.46
2023-04-02T11:42:47.382Z,1000.47
2023-04-02T11:43:47.394Z,1000.46
2023-04-02T11:44:47.374Z,1000.47
2023-04-02T11:45:52.958Z,1000.46
2023-04-02T11:46:47.381Z,1000.45
2023-04-02T11:47:47.376Z,1000.44
2023-04-02T11:48:47.353Z,1000.47
2023-04-02T11:49:47.301Z,1000.44
2023-04-02T11:50:47.312Z,1000.44
2023-04-02T11:51:47.282Z,1000.44
2023-04-02T11:52:47.284Z,1000.46
2023-04-02T11:53:47.285Z,1000.45
2023-04-02T11:54:47.264Z,1000.45
2023-04-02T11:55:47.246Z,1000.45
2023-04-02T11:56:47.322Z,1000.47
2023-04-02T11:57:47.230Z,1000.49
2023-04-02T11:58:47.234Z,1000.50
2023-04-02T11:59:47.198Z,1000.50
2023-04-02T12:00:47.200Z,1000.51
2023-04-02T12:01:47.202Z,1000.54
2023-04-02T12:02:47.205Z,1000.55
2023-04-02T12:03:47.192Z,1000.57
2023-04-02T12:04:47.190Z,1000.59
2023-04-02T12:05:47.143Z,1000.60
2023-04-02T12:06:47.367Z,1000.60
2023-04-02T12:07:47.114Z,1000.62
2023-04-02T12:08:57.174Z,1000.63
2023-04-02T12:09:47.102Z,1000.65
2023-04-02T12:10:47.089Z,1000.65
2023-04-02T12:11:47.078Z,1000.68
2023-04-02T12:12:47.072Z,1000.70
2023-04-02T12:13:47.129Z,1000.73
2023-04-02T12:14:47.066Z,1000.75
2023-04-02T12:15:47.037Z,1000.76
2023-04-02T12:16:47.045Z,1000.78
2023-04-02T12:17:47.065Z,1000.83
2023-04-02T12:18:47.035Z,1000.88
2023-04-02T12:19:47.015Z,1000.88
2023-04-02T12:20:46.990Z,1000.89
2023-04-02T12:21:46.972Z,1000.92
2023-04-02T12:22:46.969Z,1000.93
2023-04-02T12:23:47.015Z,1000.96
2023-04-02T12:24:46.959Z,1000.98
2023-04-02T12:25:46.952Z,1001.01
2023-04-02T12:26:46.984Z,1001.01